createdAt,value
2022-11-16T00:01:03.577Z,11.2
2022-11-16T00:11:05.495Z,11.1
2022-11-16T00:21:07.541Z,11
2022-11-16T00:31:09.997Z,10.9
2022-11-16T00:41:11.719Z,10.9
2022-11-16T00:51:13.728Z,10.8
2022-11-16T01:01:16.074Z,10.8
2022-11-16T01:21:19.944Z,10.7
2022-11-16T01:31:21.677Z,10.7
2022-11-16T01:41:23.464Z,10.7
2022-11-16T01:51:25.844Z,10.7
2022-11-16T02:01:27.576Z,10.7
2022-11-16T02:11:29.297Z,10.7
2022-11-16T02:21:31.583Z,10.7
2022-11-16T02:31:34.076Z,10.6
2022-11-16T02:41:36.124Z,10.6
2022-11-16T02:51:37.810Z,10.6
2022-11-16T03:01:39.938Z,10.6
2022-11-16T03:11:42.376Z,10.7
2022-11-16T03:21:44.420Z,10.7
2022-11-16T03:31:46.342Z,10.7
2022-11-16T03:41:48.956Z,10.7
2022-11-16T03:51:50.666Z,10.7
2022-11-16T04:11:55.458Z,10.7
2022-11-16T04:21:57.498Z,10.8
2022-11-16T04:31:59.693Z,10.8
2022-11-16T04:52:04.274Z,10.9
2022-11-16T05:02:06.375Z,10.9
2022-11-16T05:12:08.839Z,10.8
2022-11-16T05:22:10.751Z,10.8
2022-11-16T05:42:15.362Z,10.8
2022-11-16T05:52:17.892Z,10.8
2022-11-16T06:02:20.508Z,10.8
2022-11-16T06:12:22.939Z,10.8
2022-11-16T06:22:25.282Z,10.8
2022-11-16T06:32:27.335Z,10.7
2022-11-16T06:42:29.424Z,10.6
2022-11-16T07:02:33.943Z,10.6
2022-11-16T07:12:36.394Z,10.5
2022-11-16T07:22:38.855Z,10.6
2022-11-16T07:32:41.031Z,10.6
2022-11-16T07:52:45.549Z,10.8
2022-11-16T08:32:55.009Z,10.8
2022-11-16T08:42:57.518Z,10.7
2022-11-16T08:52:59.749Z,10.8
2022-11-16T09:13:03.777Z,11.3
2022-11-16T09:23:05.875Z,11.6
2022-11-16T09:33:08.345Z,11.5
2022-11-16T10:03:15.036Z,11.9
2022-11-16T10:14:44.870Z,12
2022-11-16T10:24:12.967Z,12.7
2022-11-16T10:34:15.330Z,12.3
2022-11-16T10:44:17.809Z,12.8
2022-11-16T10:54:19.602Z,12.2
2022-11-16T11:04:21.396Z,12
2022-11-16T11:14:23.632Z,12.6
2022-11-16T11:34:28.554Z,11.9
2022-11-16T11:44:30.602Z,11.9
2022-11-16T11:54:32.852Z,11.9
2022-11-16T12:04:35.297Z,12.3
2022-11-16T12:14:37.641Z,12.6
2022-11-16T12:24:40.157Z,12.7
2022-11-16T12:34:42.149Z,12.4
2022-11-16T12:44:44.123Z,12.4
2022-11-16T12:55:04.157Z,12.3
2022-11-16T13:04:48.437Z,12.3
2022-11-16T13:14:50.112Z,12.3
2022-11-16T13:24:51.951Z,12.2
2022-11-16T13:34:53.993Z,12.4
2022-11-16T13:44:56.038Z,12.6
2022-11-16T13:54:58.475Z,12.6
2022-11-16T14:05:08.834Z,12.6
2022-11-16T14:15:11.147Z,12.5
2022-11-16T14:35:14.914Z,12.4
2022-11-16T14:55:18.992Z,12.1
2022-11-16T15:05:21.149Z,12
2022-11-16T15:15:22.833Z,12
2022-11-16T15:25:24.472Z,11.9
2022-11-16T15:35:26.841Z,11.9
2022-11-16T15:45:28.642Z,11.7
2022-11-16T15:55:30.988Z,11.4
2022-11-16T15:55:52.932Z,11.4
2022-11-16T16:05:41.660Z,11
2022-11-16T16:15:43.366Z,10.8
2022-11-16T16:35:46.899Z,10.2
2022-11-16T16:45:48.841Z,10.4
2022-11-16T16:55:50.533Z,10.4
2022-11-16T17:05:52.935Z,10.5
2022-11-16T17:15:55.160Z,10.5
2022-11-16T17:25:57.079Z,10.7
2022-11-16T17:35:58.769Z,10.8
2022-11-16T17:46:01.328Z,10.9
2022-11-16T17:56:03.264Z,10.9
2022-11-16T18:06:05.177Z,11
2022-11-16T18:16:07.294Z,11
2022-11-16T18:26:08.960Z,10.8
2022-11-16T18:36:10.848Z,10.7
2022-11-16T18:46:12.638Z,10.7
2022-11-16T18:56:14.630Z,10.5
2022-11-16T19:06:16.478Z,10.3
2022-11-16T19:16:18.682Z,10.3
2022-11-16T19:36:22.673Z,10.2
2022-11-16T19:46:24.562Z,10.1
2022-11-16T19:56:26.558Z,10.1
2022-11-16T20:26:33.350Z,9.6
2022-11-16T20:36:35.415Z,9.4
2022-11-16T20:46:37.498Z,9.2
2022-11-16T20:56:39.543Z,9.3
2022-11-16T21:06:41.828Z,9.5
2022-11-16T21:16:43.755Z,9.4
2022-11-16T21:26:45.727Z,9.3
2022-11-16T21:36:47.921Z,9.4
2022-11-16T21:46:50.414Z,9.3
2022-11-16T21:56:52.145Z,9.3
2022-11-16T22:16:57.038Z,9.6
2022-11-16T22:37:01.305Z,9.3
2022-11-16T22:47:03.230Z,9.2
2022-11-16T22:57:05.473Z,9.3
2022-11-16T23:17:09.389Z,9.4
2022-11-16T23:37:13.254Z,9.5
2022-11-16T23:57:17.588Z,9.6
